Bowring, Oklahoma
Current Conditions -  °F | °C
As of 11:53 PM on Friday 19 Dec 2014 (Local Time) from KBVO Reporting Station
Overcast Overcast  
Wind Chill:   Ceiling: 2300
Heat Index:   Visibility: 10mi
Dew Point:   Wind: 3mph
Humidity: 89%   Direction: 250°WSW
Pressure: 30.24"   Gusts: NA
Location:  36.88°N, 96.12°W
Report Text: KBVO 200553Z AUTO 25003KT 10SM OVC023 03/01 A3024 RMK AO2 SLP242 T00280011 10033 20028 400390017 52000
Loading
Personal Weather Stations






























Interactive Weather Map New forecast layout! Learn more

10-Day Weather Forecast

Advertisements
Track Severe Weather on mobile